sensor_id;sensor_type;location;lat;lon;timestamp;pressure;altitude;pressure_sealevel;temperature;humidity
45541;BME280;31265;49.680;8.608;2023-03-20T00:02:22;100826.72;;;6.67;100.00
45541;BME280;31265;49.680;8.608;2023-03-20T00:04:53;100817.19;;;6.68;100.00
45541;BME280;31265;49.680;8.608;2023-03-20T00:07:22;100818.66;;;6.70;100.00
45541;BME280;31265;49.680;8.608;2023-03-20T00:09:53;100817.69;;;6.67;100.00
45541;BME280;31265;49.680;8.608;2023-03-20T00:12:24;100816.97;;;6.66;100.00
45541;BME280;31265;49.680;8.608;2023-03-20T00:14:53;100823.75;;;6.65;100.00
45541;BME280;31265;49.680;8.608;2023-03-20T00:17:22;100829.03;;;6.63;100.00
45541;BME280;31265;49.680;8.608;2023-03-20T00:19:54;100829.56;;;6.62;100.00
45541;BME280;31265;49.680;8.608;2023-03-20T00:22:23;100831.06;;;6.63;100.00
45541;BME280;31265;49.680;8.608;2023-03-20T00:24:51;100835.53;;;6.66;100.00
45541;BME280;31265;49.680;8.608;2023-03-20T00:27:20;100829.19;;;6.71;100.00
45541;BME280;31265;49.680;8.608;2023-03-20T00:29:49;100837.59;;;6.79;100.00
45541;BME280;31265;49.680;8.608;2023-03-20T00:32:18;100842.50;;;6.86;100.00
45541;BME280;31265;49.680;8.608;2023-03-20T00:34:47;100845.72;;;6.90;100.00
45541;BME280;31265;49.680;8.608;2023-03-20T00:37:17;100848.41;;;6.96;100.00
45541;BME280;31265;49.680;8.608;2023-03-20T00:39:46;100843.75;;;7.04;100.00
45541;BME280;31265;49.680;8.608;2023-03-20T00:42:19;100847.19;;;7.10;100.00
45541;BME280;31265;49.680;8.608;2023-03-20T00:44:50;100851.88;;;7.15;100.00
45541;BME280;31265;49.680;8.608;2023-03-20T00:47:23;100848.50;;;7.22;100.00
45541;BME280;31265;49.680;8.608;2023-03-20T00:49:53;100839.69;;;7.24;100.00
45541;BME280;31265;49.680;8.608;2023-03-20T00:52:25;100849.13;;;7.28;100.00
45541;BME280;31265;49.680;8.608;2023-03-20T00:54:54;100843.00;;;7.36;100.00
45541;BME280;31265;49.680;8.608;2023-03-20T00:57:25;100841.88;;;7.44;100.00
45541;BME280;31265;49.680;8.608;2023-03-20T00:59:57;100845.59;;;7.47;100.00
45541;BME280;31265;49.680;8.608;2023-03-20T01:02:28;100846.00;;;7.51;100.00
45541;BME280;31265;49.680;8.608;2023-03-20T01:04:59;100857.28;;;7.53;100.00
45541;BME280;31265;49.680;8.608;2023-03-20T01:07:29;100848.38;;;7.60;100.00
45541;BME280;31265;49.680;8.608;2023-03-20T01:09:58;100855.38;;;7.61;100.00
45541;BME280;31265;49.680;8.608;2023-03-20T01:12:26;100853.88;;;7.60;100.00
45541;BME280;31265;49.680;8.608;2023-03-20T01:14:56;100851.56;;;7.64;100.00
45541;BME280;31265;49.680;8.608;2023-03-20T01:17:26;100849.00;;;7.66;100.00
45541;BME280;31265;49.680;8.608;2023-03-20T01:19:57;100840.53;;;7.64;100.00
45541;BME280;31265;49.680;8.608;2023-03-20T01:22:26;100849.97;;;7.69;100.00
45541;BME280;31265;49.680;8.608;2023-03-20T01:24:55;100841.16;;;7.70;100.00
45541;BME280;31265;49.680;8.608;2023-03-20T01:27:24;100846.16;;;7.72;100.00
45541;BME280;31265;49.680;8.608;2023-03-20T01:29:52;100849.44;;;7.70;100.00
45541;BME280;31265;49.680;8.608;2023-03-20T01:32:21;100850.72;;;7.69;100.00
45541;BME280;31265;49.680;8.608;2023-03-20T01:34:51;100854.97;;;7.70;100.00
45541;BME280;31265;49.680;8.608;2023-03-20T01:37:23;100849.13;;;7.74;100.00
45541;BME280;31265;49.680;8.608;2023-03-20T01:39:52;100858.16;;;7.74;100.00
45541;BME280;31265;49.680;8.608;2023-03-20T01:42:22;100860.19;;;7.74;100.00
45541;BME280;31265;49.680;8.608;2023-03-20T01:44:51;100860.59;;;7.78;100.00
45541;BME280;31265;49.680;8.608;2023-03-20T01:47:21;100861.88;;;7.77;100.00
45541;BME280;31265;49.680;8.608;2023-03-20T01:53:11;100862.53;;;7.83;100.00
45541;BME280;31265;49.680;8.608;2023-03-20T01:55:50;100867.09;;;7.81;100.00
45541;BME280;31265;49.680;8.608;2023-03-20T01:58:26;100860.31;;;7.82;100.00
45541;BME280;31265;49.680;8.608;2023-03-20T02:00:57;100853.50;;;7.83;100.00
45541;BME280;31265;49.680;8.608;2023-03-20T02:03:27;100858.28;;;7.82;100.00
45541;BME280;31265;49.680;8.608;2023-03-20T02:06:15;100862.75;;;7.85;100.00
45541;BME280;31265;49.680;8.608;2023-03-20T02:09:16;100859.97;;;7.85;100.00
45541;BME280;31265;49.680;8.608;2023-03-20T02:11:46;100857.94;;;7.86;100.00
45541;BME280;31265;49.680;8.608;2023-03-20T02:14:19;100852.97;;;7.84;100.00
45541;BME280;31265;49.680;8.608;2023-03-20T02:16:56;100864.03;;;7.84;100.00
45541;BME280;31265;49.680;8.608;2023-03-20T02:19:42;100861.47;;;7.86;100.00
45541;BME280;31265;49.680;8.608;2023-03-20T02:22:32;100856.69;;;7.87;100.00
45541;BME280;31265;49.680;8.608;2023-03-20T02:28:33;100858.59;;;7.92;100.00
45541;BME280;31265;49.680;8.608;2023-03-20T02:34:34;100859.88;;;7.91;100.00
45541;BME280;31265;49.680;8.608;2023-03-20T02:37:31;100869.66;;;7.92;100.00
45541;BME280;31265;49.680;8.608;2023-03-20T02:40:11;100862.00;;;7.98;100.00
45541;BME280;31265;49.680;8.608;2023-03-20T02:42:51;100855.00;;;7.97;100.00
45541;BME280;31265;49.680;8.608;2023-03-20T02:45:26;100866.03;;;7.97;100.00
45541;BME280;31265;49.680;8.608;2023-03-20T02:48:12;100862.00;;;7.98;100.00
45541;BME280;31265;49.680;8.608;2023-03-20T02:50:46;100865.72;;;8.01;100.00
45541;BME280;31265;49.680;8.608;2023-03-20T02:53:30;100873.94;;;8.06;100.00
45541;BME280;31265;49.680;8.608;2023-03-20T02:56:10;100872.63;;;8.07;100.00
45541;BME280;31265;49.680;8.608;2023-03-20T02:58:45;100867.09;;;8.07;100.00
45541;BME280;31265;49.680;8.608;2023-03-20T03:01:21;100872.41;;;8.05;100.00
45541;BME280;31265;49.680;8.608;2023-03-20T03:03:56;100877.66;;;8.09;100.00
45541;BME280;31265;49.680;8.608;2023-03-20T03:06:29;100868.06;;;8.10;100.00
45541;BME280;31265;49.680;8.608;2023-03-20T03:09:04;100878.38;;;8.09;100.00
45541;BME280;31265;49.680;8.608;2023-03-20T03:11:36;100874.56;;;8.12;100.00
45541;BME280;31265;49.680;8.608;2023-03-20T03:14:08;100878.06;;;8.13;100.00
45541;BME280;31265;49.680;8.608;2023-03-20T03:16:43;100875.19;;;8.18;100.00
45541;BME280;31265;49.680;8.608;2023-03-20T03:19:17;100873.47;;;8.15;100.00
45541;BME280;31265;49.680;8.608;2023-03-20T03:21:47;100875.72;;;8.17;100.00
45541;BME280;31265;49.680;8.608;2023-03-20T03:24:27;100875.19;;;8.18;100.00
45541;BME280;31265;49.680;8.608;2023-03-20T03:27:14;100873.38;;;8.21;100.00
45541;BME280;31265;49.680;8.608;2023-03-20T03:29:48;100870.72;;;8.29;100.00
45541;BME280;31265;49.680;8.608;2023-03-20T03:32:29;100870.28;;;8.25;100.00
45541;BME280;31265;49.680;8.608;2023-03-20T03:34:59;100869.78;;;8.26;100.00
45541;BME280;31265;49.680;8.608;2023-03-20T03:37:39;100857.53;;;8.22;100.00
45541;BME280;31265;49.680;8.608;2023-03-20T03:40:18;100861.56;;;8.21;100.00
45541;BME280;31265;49.680;8.608;2023-03-20T03:42:53;100867.84;;;8.21;100.00
45541;BME280;31265;49.680;8.608;2023-03-20T03:45:30;100865.63;;;8.19;100.00
45541;BME280;31265;49.680;8.608;2023-03-20T03:48:04;100870.06;;;8.23;100.00
45541;BME280;31265;49.680;8.608;2023-03-20T03:50:37;100867.09;;;8.21;100.00
45541;BME280;31265;49.680;8.608;2023-03-20T03:53:20;100874.13;;;8.22;100.00
45541;BME280;31265;49.680;8.608;2023-03-20T03:55:52;100878.91;;;8.21;100.00
45541;BME280;31265;49.680;8.608;2023-03-20T03:58:27;100881.13;;;8.23;100.00
45541;BME280;31265;49.680;8.608;2023-03-20T04:00:58;100881.88;;;8.23;100.00
45541;BME280;31265;49.680;8.608;2023-03-20T04:03:31;100881.00;;;8.28;100.00
45541;BME280;31265;49.680;8.608;2023-03-20T04:06:02;100892.06;;;8.28;100.00
45541;BME280;31265;49.680;8.608;2023-03-20T04:08:32;100884.31;;;8.27;100.00
45541;BME280;31265;49.680;8.608;2023-03-20T04:11:02;100887.63;;;8.38;100.00
45541;BME280;31265;49.680;8.608;2023-03-20T04:13:30;100887.53;;;8.31;100.00
45541;BME280;31265;49.680;8.608;2023-03-20T04:15:59;100885.28;;;8.29;100.00
45541;BME280;31265;49.680;8.608;2023-03-20T04:18:29;100888.06;;;8.29;100.00
45541;BME280;31265;49.680;8.608;2023-03-20T04:20:57;100891.56;;;8.30;100.00
45541;BME280;31265;49.680;8.608;2023-03-20T04:23:27;100886.75;;;8.30;100.00
45541;BME280;31265;49.680;8.608;2023-03-20T04:25:56;100890.81;;;8.29;100.00
45541;BME280;31265;49.680;8.608;2023-03-20T04:28:26;100893.06;;;8.31;100.00
45541;BME280;31265;49.680;8.608;2023-03-20T04:31:03;100889.75;;;8.32;100.00
45541;BME280;31265;49.680;8.608;2023-03-20T04:33:50;100891.25;;;8.33;100.00
45541;BME280;31265;49.680;8.608;2023-03-20T04:36:44;100889.00;;;8.32;100.00
45541;BME280;31265;49.680;8.608;2023-03-20T04:39:15;100883.25;;;8.30;100.00
45541;BME280;31265;49.680;8.608;2023-03-20T04:41:44;100889.53;;;8.30;100.00
45541;BME280;31265;49.680;8.608;2023-03-20T04:44:14;100895.16;;;8.38;100.00
45541;BME280;31265;49.680;8.608;2023-03-20T04:46:45;100892.19;;;8.36;100.00
45541;BME280;31265;49.680;8.608;2023-03-20T04:49:15;100889.88;;;8.40;100.00
45541;BME280;31265;49.680;8.608;2023-03-20T04:51:45;100898.69;;;8.38;100.00
45541;BME280;31265;49.680;8.608;2023-03-20T04:54:16;100894.19;;;8.35;100.00
45541;BME280;31265;49.680;8.608;2023-03-20T04:56:45;100893.47;;;8.35;100.00
45541;BME280;31265;49.680;8.608;2023-03-20T04:59:18;100896.97;;;8.35;100.00
45541;BME280;31265;49.680;8.608;2023-03-20T05:01:47;100905.47;;;8.37;100.00
45541;BME280;31265;49.680;8.608;2023-03-20T05:04:17;100904.94;;;8.39;100.00
45541;BME280;31265;49.680;8.608;2023-03-20T05:06:46;100906.47;;;8.40;100.00
45541;BME280;31265;49.680;8.608;2023-03-20T05:09:17;100906.97;;;8.38;100.00
45541;BME280;31265;49.680;8.608;2023-03-20T05:11:50;100907.97;;;8.41;100.00
45541;BME280;31265;49.680;8.608;2023-03-20T05:14:39;100910.47;;;8.39;100.00
45541;BME280;31265;49.680;8.608;2023-03-20T05:17:26;100904.94;;;8.39;100.00
45541;BME280;31265;49.680;8.608;2023-03-20T05:20:13;100913.50;;;8.41;100.00
45541;BME280;31265;49.680;8.608;2023-03-20T05:23:01;100916.25;;;8.41;100.00
45541;BME280;31265;49.680;8.608;2023-03-20T05:25:50;100919.75;;;8.42;100.00
45541;BME280;31265;49.680;8.608;2023-03-20T05:28:33;100920.28;;;8.40;100.00
45541;BME280;31265;49.680;8.608;2023-03-20T05:31:23;100915.28;;;8.38;100.00
45541;BME280;31265;49.680;8.608;2023-03-20T05:34:30;100913.25;;;8.39;100.00
45541;BME280;31265;49.680;8.608;2023-03-20T05:37:18;100910.59;;;8.47;100.00
45541;BME280;31265;49.680;8.608;2023-03-20T05:40:16;100907.09;;;8.46;100.00
45541;BME280;31265;49.680;8.608;2023-03-20T05:43:14;100903.06;;;8.47;100.00
45541;BME280;31265;49.680;8.608;2023-03-20T05:46:09;100904.56;;;8.48;100.00
45541;BME280;31265;49.680;8.608;2023-03-20T05:48:42;100899.03;;;8.48;100.00
45541;BME280;31265;49.680;8.608;2023-03-20T05:51:13;100896.25;;;8.48;100.00
45541;BME280;31265;49.680;8.608;2023-03-20T05:54:11;100884.22;;;8.59;100.00
45541;BME280;31265;49.680;8.608;2023-03-20T05:57:04;100893.78;;;8.58;100.00
45541;BME280;31265;49.680;8.608;2023-03-20T05:59:51;100894.94;;;8.63;100.00
45541;BME280;31265;49.680;8.608;2023-03-20T06:02:25;100903.06;;;8.60;100.00
45541;BME280;31265;49.680;8.608;2023-03-20T06:05:05;100903.56;;;8.59;100.00
45541;BME280;31265;49.680;8.608;2023-03-20T06:07:47;100912.94;;;8.56;100.00
45541;BME280;31265;49.680;8.608;2023-03-20T06:10:16;100913.69;;;8.56;100.00
45541;BME280;31265;49.680;8.608;2023-03-20T06:12:53;100927.41;;;8.62;100.00
45541;BME280;31265;49.680;8.608;2023-03-20T06:15:24;100927.63;;;8.64;100.00
45541;BME280;31265;49.680;8.608;2023-03-20T06:17:59;100926.66;;;8.61;100.00
45541;BME280;31265;49.680;8.608;2023-03-20T06:20:29;100923.91;;;8.61;100.00
45541;BME280;31265;49.680;8.608;2023-03-20T06:23:03;100924.09;;;8.64;100.00
45541;BME280;31265;49.680;8.608;2023-03-20T06:25:33;100919.44;;;8.58;100.00
45541;BME280;31265;49.680;8.608;2023-03-20T06:28:03;100931.44;;;8.61;100.00
45541;BME280;31265;49.680;8.608;2023-03-20T06:30:32;100934.22;;;8.61;100.00
45541;BME280;31265;49.680;8.608;2023-03-20T06:33:00;100932.94;;;8.62;100.00
45541;BME280;31265;49.680;8.608;2023-03-20T06:35:38;100940.38;;;8.67;100.00
45541;BME280;31265;49.680;8.608;2023-03-20T06:38:07;100934.31;;;8.69;100.00
45541;BME280;31265;49.680;8.608;2023-03-20T06:40:37;100942.63;;;8.69;100.00
45541;BME280;31265;49.680;8.608;2023-03-20T06:43:05;100947.59;;;8.70;100.00
45541;BME280;31265;49.680;8.608;2023-03-20T06:45:45;100944.31;;;8.72;100.00
45541;BME280;31265;49.680;8.608;2023-03-20T06:48:22;100956.03;;;8.78;100.00
45541;BME280;31265;49.680;8.608;2023-03-20T06:50:52;100951.31;;;8.86;100.00
45541;BME280;31265;49.680;8.608;2023-03-20T06:53:26;100950.88;;;8.82;100.00
45541;BME280;31265;49.680;8.608;2023-03-20T06:56:04;100956.41;;;8.82;100.00
45541;BME280;31265;49.680;8.608;2023-03-20T06:58:36;100954.38;;;8.82;100.00
45541;BME280;31265;49.680;8.608;2023-03-20T07:01:15;100958.78;;;8.78;100.00
45541;BME280;31265;49.680;8.608;2023-03-20T07:03:49;100965.38;;;8.75;100.00
45541;BME280;31265;49.680;8.608;2023-03-20T07:06:24;100956.03;;;8.78;100.00
45541;BME280;31265;49.680;8.608;2023-03-20T07:08:57;100957.28;;;8.77;100.00
45541;BME280;31265;49.680;8.608;2023-03-20T07:11:26;100958.88;;;8.72;100.00
45541;BME280;31265;49.680;8.608;2023-03-20T07:13:56;100954.94;;;8.68;100.00
45541;BME280;31265;49.680;8.608;2023-03-20T07:16:38;100958.13;;;8.72;100.00
45541;BME280;31265;49.680;8.608;2023-03-20T07:19:07;100956.31;;;8.74;100.00
45541;BME280;31265;49.680;8.608;2023-03-20T07:21:49;100954.28;;;8.75;100.00
45541;BME280;31265;49.680;8.608;2023-03-20T07:24:19;100958.56;;;8.76;100.00
45541;BME280;31265;49.680;8.608;2023-03-20T07:26:50;100951.31;;;8.86;100.00
45541;BME280;31265;49.680;8.608;2023-03-20T07:29:21;100958.75;;;8.91;100.00
45541;BME280;31265;49.680;8.608;2023-03-20T07:32:11;100957.69;;;8.94;100.00
45541;BME280;31265;49.680;8.608;2023-03-20T07:34:46;100965.53;;;9.03;100.00
45541;BME280;31265;49.680;8.608;2023-03-20T07:37:19;100964.69;;;9.09;100.00
45541;BME280;31265;49.680;8.608;2023-03-20T07:39:56;100970.81;;;9.15;100.00
45541;BME280;31265;49.680;8.608;2023-03-20T07:42:29;100972.44;;;9.10;100.00
45541;BME280;31265;49.680;8.608;2023-03-20T07:45:06;100976.16;;;9.13;100.00
45541;BME280;31265;49.680;8.608;2023-03-20T07:47:35;100975.41;;;9.12;100.00
45541;BME280;31265;49.680;8.608;2023-03-20T07:50:05;100974.56;;;9.17;100.00
45541;BME280;31265;49.680;8.608;2023-03-20T07:52:36;100975.31;;;9.18;100.00
45541;BME280;31265;49.680;8.608;2023-03-20T07:55:04;100975.09;;;9.16;100.00
45541;BME280;31265;49.680;8.608;2023-03-20T07:57:36;100980.41;;;9.14;100.00
45541;BME280;31265;49.680;8.608;2023-03-20T08:00:05;100986.94;;;9.03;100.00
45541;BME280;31265;49.680;8.608;2023-03-20T08:02:37;100989.25;;;9.12;100.00
45541;BME280;31265;49.680;8.608;2023-03-20T08:05:07;100985.81;;;9.19;100.00
45541;BME280;31265;49.680;8.608;2023-03-20T08:07:38;100994.47;;;9.16;100.00
45541;BME280;31265;49.680;8.608;2023-03-20T08:10:07;100985.53;;;9.10;100.00
45541;BME280;31265;49.680;8.608;2023-03-20T08:12:35;100991.41;;;9.06;100.00
45541;BME280;31265;49.680;8.608;2023-03-20T08:15:04;100997.06;;;9.00;100.00
45541;BME280;31265;49.680;8.608;2023-03-20T08:17:33;100989.72;;;9.03;100.00
45541;BME280;31265;49.680;8.608;2023-03-20T08:20:02;100995.78;;;9.01;100.00
45541;BME280;31265;49.680;8.608;2023-03-20T08:22:31;100988.75;;;9.00;100.00
45541;BME280;31265;49.680;8.608;2023-03-20T08:25:01;100995.56;;;8.99;100.00
45541;BME280;31265;49.680;8.608;2023-03-20T08:27:30;100998.31;;;8.99;100.00
45541;BME280;31265;49.680;8.608;2023-03-20T08:29:58;100999.91;;;9.08;100.00
45541;BME280;31265;49.680;8.608;2023-03-20T08:32:26;101007.25;;;9.19;100.00
45541;BME280;31265;49.680;8.608;2023-03-20T08:34:54;101001.19;;;9.20;100.00
45541;BME280;31265;49.680;8.608;2023-03-20T08:37:23;100998.03;;;9.37;100.00
45541;BME280;31265;49.680;8.608;2023-03-20T08:39:51;101007.63;;;9.36;100.00
45541;BME280;31265;49.680;8.608;2023-03-20T08:42:20;101005.78;;;9.39;100.00
45541;BME280;31265;49.680;8.608;2023-03-20T08:44:49;101011.19;;;9.44;100.00
45541;BME280;31265;49.680;8.608;2023-03-20T08:47:19;101015.94;;;9.36;100.00
45541;BME280;31265;49.680;8.608;2023-03-20T08:49:47;101012.84;;;9.40;100.00
45541;BME280;31265;49.680;8.608;2023-03-20T08:52:17;101020.81;;;9.43;100.00
45541;BME280;31265;49.680;8.608;2023-03-20T08:54:46;101017.16;;;9.48;100.00
45541;BME280;31265;49.680;8.608;2023-03-20T08:57:14;101026.63;;;9.53;100.00
45541;BME280;31265;49.680;8.608;2023-03-20T08:59:44;101025.16;;;9.52;100.00
45541;BME280;31265;49.680;8.608;2023-03-20T09:02:14;101025.53;;;9.35;100.00
45541;BME280;31265;49.680;8.608;2023-03-20T09:04:42;101036.38;;;9.33;100.00
45541;BME280;31265;49.680;8.608;2023-03-20T09:07:11;101031.63;;;9.20;100.00
45541;BME280;31265;49.680;8.608;2023-03-20T09:09:39;101029.19;;;9.17;100.00
45541;BME280;31265;49.680;8.608;2023-03-20T09:12:08;101029.94;;;9.17;100.00
45541;BME280;31265;49.680;8.608;2023-03-20T09:14:36;101024.94;;;9.16;100.00
45541;BME280;31265;49.680;8.608;2023-03-20T09:17:06;101019.25;;;9.21;100.00
45541;BME280;31265;49.680;8.608;2023-03-20T09:19:35;101023.84;;;9.19;100.00
45541;BME280;31265;49.680;8.608;2023-03-20T09:22:05;101034.50;;;9.15;100.00
45541;BME280;31265;49.680;8.608;2023-03-20T09:24:33;101042.50;;;9.18;100.00
45541;BME280;31265;49.680;8.608;2023-03-20T09:27:02;101035.34;;;9.23;100.00
45541;BME280;31265;49.680;8.608;2023-03-20T09:29:30;101041.97;;;9.20;100.00
45541;BME280;31265;49.680;8.608;2023-03-20T09:32:01;101044.47;;;9.31;100.00
45541;BME280;31265;49.680;8.608;2023-03-20T09:34:31;101043.41;;;9.34;100.00
45541;BME280;31265;49.680;8.608;2023-03-20T09:36:59;101046.81;;;9.40;100.00
45541;BME280;31265;49.680;8.608;2023-03-20T09:39:29;101051.50;;;9.45;100.00
45541;BME280;31265;49.680;8.608;2023-03-20T09:42:00;101057.25;;;9.47;100.00
45541;BME280;31265;49.680;8.608;2023-03-20T09:44:40;101054.69;;;9.50;100.00
45541;BME280;31265;49.680;8.608;2023-03-20T09:47:18;101054.09;;;9.64;100.00
45541;BME280;31265;49.680;8.608;2023-03-20T09:50:12;101050.69;;;9.93;100.00
45541;BME280;31265;49.680;8.608;2023-03-20T09:52:53;101062.91;;;10.18;100.00
45541;BME280;31265;49.680;8.608;2023-03-20T09:55:30;101059.81;;;10.43;100.00
45541;BME280;31265;49.680;8.608;2023-03-20T09:58:04;101060.47;;;10.57;100.00
45541;BME280;31265;49.680;8.608;2023-03-20T10:00:35;101051.09;;;10.67;100.00
45541;BME280;31265;49.680;8.608;2023-03-20T10:03:09;101051.22;;;10.90;100.00
45541;BME280;31265;49.680;8.608;2023-03-20T10:05:44;101050.84;;;11.23;100.00
45541;BME280;31265;49.680;8.608;2023-03-20T10:08:14;101041.44;;;11.41;100.00
45541;BME280;31265;49.680;8.608;2023-03-20T10:10:49;101044.88;;;11.18;100.00
45541;BME280;31265;49.680;8.608;2023-03-20T10:13:37;101042.59;;;11.53;100.00
45541;BME280;31265;49.680;8.608;2023-03-20T10:16:13;101041.16;;;11.75;100.00
45541;BME280;31265;49.680;8.608;2023-03-20T10:18:48;101036.53;;;11.78;100.00
45541;BME280;31265;49.680;8.608;2023-03-20T10:21:25;101028.78;;;12.15;100.00
45541;BME280;31265;49.680;8.608;2023-03-20T10:24:00;101022.84;;;12.26;100.00
45541;BME280;31265;49.680;8.608;2023-03-20T10:26:33;101024.16;;;12.17;100.00
45541;BME280;31265;49.680;8.608;2023-03-20T10:29:06;101018.94;;;12.21;100.00
45541;BME280;31265;49.680;8.608;2023-03-20T10:31:46;101028.19;;;12.55;100.00
45541;BME280;31265;49.680;8.608;2023-03-20T10:34:27;101019.91;;;12.95;100.00
45541;BME280;31265;49.680;8.608;2023-03-20T10:37:13;101024.72;;;13.02;100.00
45541;BME280;31265;49.680;8.608;2023-03-20T10:39:53;101031.28;;;12.82;100.00
45541;BME280;31265;49.680;8.608;2023-03-20T10:42:28;101023.63;;;12.98;100.00
45541;BME280;31265;49.680;8.608;2023-03-20T10:45:00;101024.09;;;13.27;100.00
45541;BME280;31265;49.680;8.608;2023-03-20T10:47:32;101018.81;;;13.39;100.00
45541;BME280;31265;49.680;8.608;2023-03-20T10:50:05;101019.25;;;13.27;100.00
45541;BME280;31265;49.680;8.608;2023-03-20T10:52:39;101014.13;;;13.99;100.00
45541;BME280;31265;49.680;8.608;2023-03-20T10:55:11;101015.94;;;14.04;100.00
45541;BME280;31265;49.680;8.608;2023-03-20T10:57:46;101012.91;;;14.35;100.00
45541;BME280;31265;49.680;8.608;2023-03-20T11:00:19;101002.91;;;14.49;100.00
45541;BME280;31265;49.680;8.608;2023-03-20T11:02:49;101016.22;;;14.76;100.00
45541;BME280;31265;49.680;8.608;2023-03-20T11:05:22;101016.38;;;14.95;100.00
45541;BME280;31265;49.680;8.608;2023-03-20T11:08:01;101008.19;;;15.24;100.00
45541;BME280;31265;49.680;8.608;2023-03-20T11:10:31;101011.31;;;15.56;100.00
45541;BME280;31265;49.680;8.608;2023-03-20T11:13:03;101001.06;;;15.14;100.00
45541;BME280;31265;49.680;8.608;2023-03-20T11:15:42;101009.13;;;15.10;100.00
45541;BME280;31265;49.680;8.608;2023-03-20T11:18:14;101007.97;;;15.13;100.00
45541;BME280;31265;49.680;8.608;2023-03-20T11:20:45;101002.28;;;15.20;100.00
45541;BME280;31265;49.680;8.608;2023-03-20T11:23:18;101013.66;;;15.05;100.00
45541;BME280;31265;49.680;8.608;2023-03-20T11:25:51;101001.59;;;15.02;100.00
45541;BME280;31265;49.680;8.608;2023-03-20T11:28:26;100998.97;;;15.32;100.00
45541;BME280;31265;49.680;8.608;2023-03-20T11:30:59;100994.50;;;15.19;100.00
45541;BME280;31265;49.680;8.608;2023-03-20T11:33:35;100995.19;;;14.92;100.00
45541;BME280;31265;49.680;8.608;2023-03-20T11:36:10;101002.75;;;14.82;100.00
45541;BME280;31265;49.680;8.608;2023-03-20T11:38:44;100988.88;;;14.74;100.00
45541;BME280;31265;49.680;8.608;2023-03-20T11:41:20;100992.09;;;14.53;100.00
45541;BME280;31265;49.680;8.608;2023-03-20T11:43:50;100989.94;;;14.44;100.00
45541;BME280;31265;49.680;8.608;2023-03-20T11:46:19;100993.75;;;14.31;100.00
45541;BME280;31265;49.680;8.608;2023-03-20T11:49:02;100986.53;;;13.86;100.00
45541;BME280;31265;49.680;8.608;2023-03-20T11:51:34;100993.47;;;13.77;100.00
45541;BME280;31265;49.680;8.608;2023-03-20T11:54:06;100981.69;;;13.61;100.00
45541;BME280;31265;49.680;8.608;2023-03-20T11:56:51;100981.84;;;13.38;100.00
45541;BME280;31265;49.680;8.608;2023-03-20T11:59:21;100977.38;;;13.43;100.00
45541;BME280;31265;49.680;8.608;2023-03-20T12:01:51;100976.84;;;13.37;100.00
45541;BME280;31265;49.680;8.608;2023-03-20T12:04:26;100980.16;;;13.43;100.00
45541;BME280;31265;49.680;8.608;2023-03-20T12:06:58;100966.72;;;13.49;100.00
45541;BME280;31265;49.680;8.608;2023-03-20T12:09:36;100968.22;;;13.75;100.00
45541;BME280;31265;49.680;8.608;2023-03-20T12:12:12;100973.03;;;13.74;100.00
45541;BME280;31265;49.680;8.608;2023-03-20T12:14:48;100961.38;;;13.68;100.00
45541;BME280;31265;49.680;8.608;2023-03-20T12:17:34;100964.16;;;13.93;100.00
45541;BME280;31265;49.680;8.608;2023-03-20T12:20:12;100961.31;;;14.01;100.00
45541;BME280;31265;49.680;8.608;2023-03-20T12:22:49;100965.09;;;14.13;100.00
45541;BME280;31265;49.680;8.608;2023-03-20T12:25:24;100959.63;;;14.23;100.00
45541;BME280;31265;49.680;8.608;2023-03-20T12:28:00;100945.81;;;14.25;100.00
45541;BME280;31265;49.680;8.608;2023-03-20T12:30:40;100949.34;;;14.26;100.00
45541;BME280;31265;49.680;8.608;2023-03-20T12:33:16;100939.66;;;14.27;100.00
45541;BME280;31265;49.680;8.608;2023-03-20T12:35:48;100943.78;;;14.26;100.00
45541;BME280;31265;49.680;8.608;2023-03-20T12:38:23;100938.69;;;14.14;100.00
45541;BME280;31265;49.680;8.608;2023-03-20T12:40:59;100934.31;;;14.38;100.00
45541;BME280;31265;49.680;8.608;2023-03-20T12:43:35;100927.63;;;13.82;100.00
45541;BME280;31265;49.680;8.608;2023-03-20T12:46:24;100927.66;;;14.16;100.00
45541;BME280;31265;49.680;8.608;2023-03-20T12:49:05;100926.47;;;14.62;100.00
45541;BME280;31265;49.680;8.608;2023-03-20T12:51:46;100924.66;;;14.57;100.00
45541;BME280;31265;49.680;8.608;2023-03-20T12:54:32;100929.94;;;14.97;100.00
45541;BME280;31265;49.680;8.608;2023-03-20T12:57:11;100923.16;;;15.00;100.00
45541;BME280;31265;49.680;8.608;2023-03-20T12:59:52;100928.97;;;15.12;100.00
45541;BME280;31265;49.680;8.608;2023-03-20T13:02:33;100916.06;;;15.17;100.00
45541;BME280;31265;49.680;8.608;2023-03-20T13:05:19;100918.53;;;15.13;100.00
45541;BME280;31265;49.680;8.608;2023-03-20T13:08:07;100916.59;;;15.05;100.00
45541;BME280;31265;49.680;8.608;2023-03-20T13:10:48;100914.28;;;14.84;100.00
45541;BME280;31265;49.680;8.608;2023-03-20T13:13:26;100915.34;;;14.89;100.00
45541;BME280;31265;49.680;8.608;2023-03-20T13:16:07;100911.53;;;14.94;100.00
45541;BME280;31265;49.680;8.608;2023-03-20T13:18:49;100905.72;;;14.82;100.00
45541;BME280;31265;49.680;8.608;2023-03-20T13:21:25;100904.63;;;14.95;100.00
45541;BME280;31265;49.680;8.608;2023-03-20T13:24:06;100897.78;;;14.79;100.00
45541;BME280;31265;49.680;8.608;2023-03-20T13:26:44;100891.28;;;14.76;100.00
45541;BME280;31265;49.680;8.608;2023-03-20T13:29:22;100887.47;;;14.37;100.00
45541;BME280;31265;49.680;8.608;2023-03-20T13:32:02;100889.75;;;14.13;100.00
45541;BME280;31265;49.680;8.608;2023-03-20T13:34:49;100887.38;;;14.10;100.00
45541;BME280;31265;49.680;8.608;2023-03-20T13:37:25;100884.69;;;14.19;100.00